Terminal Aerodrome Forecast
Issued by NWS Tampa Bay Area, FL

Home | Current Version | Previous Version | Text Only | Print | Product List | Glossary On
Versions: 1 2 3 4 5 6 7 8 9 10 11 12 13 14
299
FTUS42 KTBW 252331
TAFFMY
TAF
KFMY 252331Z 2600/2624 VRB04KT P6SM SCT060 BKN250
     FM260200 10004KT P6SM FEW060 SCT250
     FM261300 12008KT P6SM SCT040
     FM262000 24007KT P6SM SCT035=

USA.gov is the U.S. government's official web portal to all federal, state and local government web resources and services.